sensor_id;sensor_type;location;lat;lon;timestamp;temperature;humidity
18884;DHT22;9574;47.282;9.640;2024-02-23T00:01:13;9.40;99.90
18884;DHT22;9574;47.282;9.640;2024-02-23T00:03:40;9.40;99.90
18884;DHT22;9574;47.282;9.640;2024-02-23T00:06:07;9.40;99.90
18884;DHT22;9574;47.282;9.640;2024-02-23T00:08:37;9.40;99.90
18884;DHT22;9574;47.282;9.640;2024-02-23T00:11:04;9.50;99.90
18884;DHT22;9574;47.282;9.640;2024-02-23T00:13:31;9.20;99.90
18884;DHT22;9574;47.282;9.640;2024-02-23T00:15:58;9.00;99.90
18884;DHT22;9574;47.282;9.640;2024-02-23T00:18:25;8.80;99.90
18884;DHT22;9574;47.282;9.640;2024-02-23T00:20:52;8.70;99.90
18884;DHT22;9574;47.282;9.640;2024-02-23T00:23:19;8.80;99.90
18884;DHT22;9574;47.282;9.640;2024-02-23T00:25:47;8.90;99.90
18884;DHT22;9574;47.282;9.640;2024-02-23T00:28:14;8.80;99.90
18884;DHT22;9574;47.282;9.640;2024-02-23T00:30:41;8.60;99.90
18884;DHT22;9574;47.282;9.640;2024-02-23T00:33:08;8.30;99.90
18884;DHT22;9574;47.282;9.640;2024-02-23T00:35:35;8.30;99.90
18884;DHT22;9574;47.282;9.640;2024-02-23T00:38:02;8.40;99.90
18884;DHT22;9574;47.282;9.640;2024-02-23T00:40:29;8.30;99.90
18884;DHT22;9574;47.282;9.640;2024-02-23T00:42:58;8.20;99.90
18884;DHT22;9574;47.282;9.640;2024-02-23T00:45:25;8.20;99.90
18884;DHT22;9574;47.282;9.640;2024-02-23T00:47:52;8.20;99.90
18884;DHT22;9574;47.282;9.640;2024-02-23T00:50:19;8.30;99.90
18884;DHT22;9574;47.282;9.640;2024-02-23T00:52:46;8.30;99.90
18884;DHT22;9574;47.282;9.640;2024-02-23T00:55:13;8.40;99.90
18884;DHT22;9574;47.282;9.640;2024-02-23T00:57:40;8.30;99.90
18884;DHT22;9574;47.282;9.640;2024-02-23T01:00:09;7.90;99.90
18884;DHT22;9574;47.282;9.640;2024-02-23T01:02:37;7.70;99.90
18884;DHT22;9574;47.282;9.640;2024-02-23T01:05:05;7.60;99.90
18884;DHT22;9574;47.282;9.640;2024-02-23T01:07:34;7.50;99.90
18884;DHT22;9574;47.282;9.640;2024-02-23T01:10:02;7.50;99.90
18884;DHT22;9574;47.282;9.640;2024-02-23T01:12:29;7.50;99.90
18884;DHT22;9574;47.282;9.640;2024-02-23T01:14:56;7.50;99.90
18884;DHT22;9574;47.282;9.640;2024-02-23T01:17:24;7.50;99.90
18884;DHT22;9574;47.282;9.640;2024-02-23T01:19:51;7.50;99.90
18884;DHT22;9574;47.282;9.640;2024-02-23T01:22:18;7.40;99.90
18884;DHT22;9574;47.282;9.640;2024-02-23T01:24:44;7.30;99.90
18884;DHT22;9574;47.282;9.640;2024-02-23T01:27:11;7.30;99.90
18884;DHT22;9574;47.282;9.640;2024-02-23T01:29:38;7.40;99.90
18884;DHT22;9574;47.282;9.640;2024-02-23T01:32:05;7.50;99.90
18884;DHT22;9574;47.282;9.640;2024-02-23T01:34:34;7.50;99.90
18884;DHT22;9574;47.282;9.640;2024-02-23T01:37:01;7.50;99.90
18884;DHT22;9574;47.282;9.640;2024-02-23T01:39:28;7.60;99.90
18884;DHT22;9574;47.282;9.640;2024-02-23T01:41:55;7.60;99.90
18884;DHT22;9574;47.282;9.640;2024-02-23T01:44:22;7.60;99.90
18884;DHT22;9574;47.282;9.640;2024-02-23T01:46:49;7.60;99.90
18884;DHT22;9574;47.282;9.640;2024-02-23T01:49:17;7.50;99.90
18884;DHT22;9574;47.282;9.640;2024-02-23T01:51:45;7.50;99.90
18884;DHT22;9574;47.282;9.640;2024-02-23T01:54:12;7.40;99.90
18884;DHT22;9574;47.282;9.640;2024-02-23T01:56:39;7.40;99.90
18884;DHT22;9574;47.282;9.640;2024-02-23T01:59:06;7.40;99.90
18884;DHT22;9574;47.282;9.640;2024-02-23T02:01:34;7.40;99.90
18884;DHT22;9574;47.282;9.640;2024-02-23T02:04:01;7.50;99.90
18884;DHT22;9574;47.282;9.640;2024-02-23T02:06:28;7.40;99.90
18884;DHT22;9574;47.282;9.640;2024-02-23T02:08:57;7.40;99.90
18884;DHT22;9574;47.282;9.640;2024-02-23T02:11:24;7.40;99.90
18884;DHT22;9574;47.282;9.640;2024-02-23T02:13:51;7.40;99.90
18884;DHT22;9574;47.282;9.640;2024-02-23T02:16:18;7.50;99.90
18884;DHT22;9574;47.282;9.640;2024-02-23T02:18:44;7.50;99.90
18884;DHT22;9574;47.282;9.640;2024-02-23T02:21:11;7.50;99.90
18884;DHT22;9574;47.282;9.640;2024-02-23T02:23:38;7.60;99.90
18884;DHT22;9574;47.282;9.640;2024-02-23T02:26:07;7.70;99.90
18884;DHT22;9574;47.282;9.640;2024-02-23T02:28:34;7.80;99.90
18884;DHT22;9574;47.282;9.640;2024-02-23T02:31:01;7.80;99.90
18884;DHT22;9574;47.282;9.640;2024-02-23T02:33:28;7.70;99.90
18884;DHT22;9574;47.282;9.640;2024-02-23T02:35:55;7.70;99.90
18884;DHT22;9574;47.282;9.640;2024-02-23T02:38:22;7.80;99.90
18884;DHT22;9574;47.282;9.640;2024-02-23T02:40:49;7.90;99.90
18884;DHT22;9574;47.282;9.640;2024-02-23T02:43:17;7.80;99.90
18884;DHT22;9574;47.282;9.640;2024-02-23T02:45:44;7.80;99.90
18884;DHT22;9574;47.282;9.640;2024-02-23T02:48:11;7.90;99.90
18884;DHT22;9574;47.282;9.640;2024-02-23T02:50:38;7.90;99.90
18884;DHT22;9574;47.282;9.640;2024-02-23T02:53:05;7.90;99.90
18884;DHT22;9574;47.282;9.640;2024-02-23T02:55:32;7.90;99.90
18884;DHT22;9574;47.282;9.640;2024-02-23T02:57:59;7.80;99.90
18884;DHT22;9574;47.282;9.640;2024-02-23T03:00:28;7.70;99.90
18884;DHT22;9574;47.282;9.640;2024-02-23T03:02:56;7.60;99.90
18884;DHT22;9574;47.282;9.640;2024-02-23T03:05:23;7.80;99.90
18884;DHT22;9574;47.282;9.640;2024-02-23T03:07:50;7.70;99.90
18884;DHT22;9574;47.282;9.640;2024-02-23T03:10:17;7.60;99.90
18884;DHT22;9574;47.282;9.640;2024-02-23T03:12:44;7.60;99.90
18884;DHT22;9574;47.282;9.640;2024-02-23T03:15:11;7.60;99.90
18884;DHT22;9574;47.282;9.640;2024-02-23T03:17:39;7.40;99.90
18884;DHT22;9574;47.282;9.640;2024-02-23T03:20:07;7.40;99.90
18884;DHT22;9574;47.282;9.640;2024-02-23T03:22:35;7.30;99.90
18884;DHT22;9574;47.282;9.640;2024-02-23T03:25:02;7.50;99.90
18884;DHT22;9574;47.282;9.640;2024-02-23T03:27:34;7.50;99.90
18884;DHT22;9574;47.282;9.640;2024-02-23T03:30:02;7.50;99.90
18884;DHT22;9574;47.282;9.640;2024-02-23T03:32:29;7.50;99.90
18884;DHT22;9574;47.282;9.640;2024-02-23T03:35:03;7.50;99.90
18884;DHT22;9574;47.282;9.640;2024-02-23T03:37:30;7.50;99.90
18884;DHT22;9574;47.282;9.640;2024-02-23T03:39:56;7.50;99.90
18884;DHT22;9574;47.282;9.640;2024-02-23T03:42:23;7.50;99.90
18884;DHT22;9574;47.282;9.640;2024-02-23T03:44:50;7.70;99.90
18884;DHT22;9574;47.282;9.640;2024-02-23T03:47:17;7.70;99.90
18884;DHT22;9574;47.282;9.640;2024-02-23T03:49:44;8.00;99.90
18884;DHT22;9574;47.282;9.640;2024-02-23T03:52:12;8.20;99.90
18884;DHT22;9574;47.282;9.640;2024-02-23T03:54:39;8.30;99.90
18884;DHT22;9574;47.282;9.640;2024-02-23T03:57:06;8.30;99.90
18884;DHT22;9574;47.282;9.640;2024-02-23T03:59:35;8.20;99.90
18884;DHT22;9574;47.282;9.640;2024-02-23T04:02:02;8.00;99.90
18884;DHT22;9574;47.282;9.640;2024-02-23T04:04:29;8.00;99.90
18884;DHT22;9574;47.282;9.640;2024-02-23T04:06:56;8.00;99.90
18884;DHT22;9574;47.282;9.640;2024-02-23T04:09:25;8.10;99.90
18884;DHT22;9574;47.282;9.640;2024-02-23T04:11:51;8.20;99.90
18884;DHT22;9574;47.282;9.640;2024-02-23T04:14:18;8.20;99.90
18884;DHT22;9574;47.282;9.640;2024-02-23T04:16:45;8.20;99.90
18884;DHT22;9574;47.282;9.640;2024-02-23T04:19:12;8.10;99.90
18884;DHT22;9574;47.282;9.640;2024-02-23T04:21:39;7.90;99.90
18884;DHT22;9574;47.282;9.640;2024-02-23T04:24:06;7.80;99.90
18884;DHT22;9574;47.282;9.640;2024-02-23T04:26:35;7.50;99.90
18884;DHT22;9574;47.282;9.640;2024-02-23T04:29:02;7.30;99.90
18884;DHT22;9574;47.282;9.640;2024-02-23T04:31:29;7.10;99.90
18884;DHT22;9574;47.282;9.640;2024-02-23T04:33:56;6.90;99.90
18884;DHT22;9574;47.282;9.640;2024-02-23T04:36:23;6.80;99.90
18884;DHT22;9574;47.282;9.640;2024-02-23T04:38:50;6.70;99.90
18884;DHT22;9574;47.282;9.640;2024-02-23T04:41:20;6.70;99.90
18884;DHT22;9574;47.282;9.640;2024-02-23T04:43:49;6.60;99.90
18884;DHT22;9574;47.282;9.640;2024-02-23T04:46:16;6.50;99.90
18884;DHT22;9574;47.282;9.640;2024-02-23T04:48:43;6.60;99.90
18884;DHT22;9574;47.282;9.640;2024-02-23T04:51:10;6.60;99.90
18884;DHT22;9574;47.282;9.640;2024-02-23T04:53:37;6.60;99.90
18884;DHT22;9574;47.282;9.640;2024-02-23T04:56:04;6.70;99.90
18884;DHT22;9574;47.282;9.640;2024-02-23T04:58:31;6.90;99.90
18884;DHT22;9574;47.282;9.640;2024-02-23T05:01:00;6.80;99.90
18884;DHT22;9574;47.282;9.640;2024-02-23T05:03:28;6.80;99.90
18884;DHT22;9574;47.282;9.640;2024-02-23T05:05:55;7.10;99.90
18884;DHT22;9574;47.282;9.640;2024-02-23T05:08:22;7.30;99.90
18884;DHT22;9574;47.282;9.640;2024-02-23T05:10:50;7.40;99.90
18884;DHT22;9574;47.282;9.640;2024-02-23T05:13:17;7.50;99.90
18884;DHT22;9574;47.282;9.640;2024-02-23T05:15:43;7.50;99.90
18884;DHT22;9574;47.282;9.640;2024-02-23T05:18:12;7.50;99.90
18884;DHT22;9574;47.282;9.640;2024-02-23T05:20:39;7.40;99.90
18884;DHT22;9574;47.282;9.640;2024-02-23T05:23:06;7.50;99.90
18884;DHT22;9574;47.282;9.640;2024-02-23T05:25:33;7.50;99.90
18884;DHT22;9574;47.282;9.640;2024-02-23T05:28:00;7.50;99.90
18884;DHT22;9574;47.282;9.640;2024-02-23T05:30:27;7.50;99.90
18884;DHT22;9574;47.282;9.640;2024-02-23T05:32:56;7.40;99.90
18884;DHT22;9574;47.282;9.640;2024-02-23T05:35:25;7.10;99.90
18884;DHT22;9574;47.282;9.640;2024-02-23T05:37:52;6.90;99.90
18884;DHT22;9574;47.282;9.640;2024-02-23T05:40:19;6.90;99.90
18884;DHT22;9574;47.282;9.640;2024-02-23T05:42:46;6.70;99.90
18884;DHT22;9574;47.282;9.640;2024-02-23T05:45:13;6.30;99.90
18884;DHT22;9574;47.282;9.640;2024-02-23T05:47:41;5.90;99.90
18884;DHT22;9574;47.282;9.640;2024-02-23T05:50:08;6.00;99.90
18884;DHT22;9574;47.282;9.640;2024-02-23T05:52:37;6.40;99.90
18884;DHT22;9574;47.282;9.640;2024-02-23T05:55:05;6.60;99.90
18884;DHT22;9574;47.282;9.640;2024-02-23T05:57:32;6.50;99.90
18884;DHT22;9574;47.282;9.640;2024-02-23T05:59:59;6.30;99.90
18884;DHT22;9574;47.282;9.640;2024-02-23T06:02:26;6.10;99.90
18884;DHT22;9574;47.282;9.640;2024-02-23T06:04:53;5.90;99.90
18884;DHT22;9574;47.282;9.640;2024-02-23T06:07:20;5.90;99.90
18884;DHT22;9574;47.282;9.640;2024-02-23T06:09:55;5.90;99.90
18884;DHT22;9574;47.282;9.640;2024-02-23T06:12:22;5.90;99.90
18884;DHT22;9574;47.282;9.640;2024-02-23T06:14:50;5.80;99.90
18884;DHT22;9574;47.282;9.640;2024-02-23T06:17:17;5.90;99.90
18884;DHT22;9574;47.282;9.640;2024-02-23T06:19:44;6.10;99.90
18884;DHT22;9574;47.282;9.640;2024-02-23T06:22:11;6.00;99.90
18884;DHT22;9574;47.282;9.640;2024-02-23T06:24:39;6.00;99.90
18884;DHT22;9574;47.282;9.640;2024-02-23T06:27:07;6.00;99.90
18884;DHT22;9574;47.282;9.640;2024-02-23T06:29:35;6.20;99.90
18884;DHT22;9574;47.282;9.640;2024-02-23T06:32:02;6.60;99.90
18884;DHT22;9574;47.282;9.640;2024-02-23T06:34:29;6.80;99.90
18884;DHT22;9574;47.282;9.640;2024-02-23T06:36:55;7.00;99.90
18884;DHT22;9574;47.282;9.640;2024-02-23T06:39:22;6.80;99.90
18884;DHT22;9574;47.282;9.640;2024-02-23T06:41:49;6.50;99.90
18884;DHT22;9574;47.282;9.640;2024-02-23T06:44:17;6.40;99.90
18884;DHT22;9574;47.282;9.640;2024-02-23T06:46:44;6.30;99.90
18884;DHT22;9574;47.282;9.640;2024-02-23T06:49:11;6.20;99.90
18884;DHT22;9574;47.282;9.640;2024-02-23T06:51:38;6.20;99.90
18884;DHT22;9574;47.282;9.640;2024-02-23T06:54:06;6.40;99.90
18884;DHT22;9574;47.282;9.640;2024-02-23T06:56:33;6.50;99.90
18884;DHT22;9574;47.282;9.640;2024-02-23T06:59:02;6.50;99.90
18884;DHT22;9574;47.282;9.640;2024-02-23T07:01:30;6.30;99.90
18884;DHT22;9574;47.282;9.640;2024-02-23T07:03:59;6.20;99.90
18884;DHT22;9574;47.282;9.640;2024-02-23T07:06:26;6.10;99.90
18884;DHT22;9574;47.282;9.640;2024-02-23T07:08:56;5.90;99.90
18884;DHT22;9574;47.282;9.640;2024-02-23T07:11:23;5.80;99.90
18884;DHT22;9574;47.282;9.640;2024-02-23T07:13:50;5.70;99.90
18884;DHT22;9574;47.282;9.640;2024-02-23T07:16:17;5.50;99.90
18884;DHT22;9574;47.282;9.640;2024-02-23T07:18:46;5.40;99.90
18884;DHT22;9574;47.282;9.640;2024-02-23T07:21:13;5.20;99.90
18884;DHT22;9574;47.282;9.640;2024-02-23T07:23:40;5.10;99.90
18884;DHT22;9574;47.282;9.640;2024-02-23T07:26:07;5.10;99.90
18884;DHT22;9574;47.282;9.640;2024-02-23T07:28:34;5.10;99.90
18884;DHT22;9574;47.282;9.640;2024-02-23T07:31:00;5.00;99.90
18884;DHT22;9574;47.282;9.640;2024-02-23T07:33:27;4.90;99.90
18884;DHT22;9574;47.282;9.640;2024-02-23T07:35:56;5.00;99.90
18884;DHT22;9574;47.282;9.640;2024-02-23T07:38:23;5.00;99.90
18884;DHT22;9574;47.282;9.640;2024-02-23T07:40:50;5.00;99.90
18884;DHT22;9574;47.282;9.640;2024-02-23T07:43:17;5.00;99.90
18884;DHT22;9574;47.282;9.640;2024-02-23T07:45:44;4.90;99.90
18884;DHT22;9574;47.282;9.640;2024-02-23T07:48:11;4.80;99.90
18884;DHT22;9574;47.282;9.640;2024-02-23T07:50:38;4.90;99.90
18884;DHT22;9574;47.282;9.640;2024-02-23T07:53:06;4.90;99.90
18884;DHT22;9574;47.282;9.640;2024-02-23T07:55:33;5.00;99.90
18884;DHT22;9574;47.282;9.640;2024-02-23T07:58:00;5.10;99.90
18884;DHT22;9574;47.282;9.640;2024-02-23T08:00:27;5.30;99.90
18884;DHT22;9574;47.282;9.640;2024-02-23T08:02:54;5.80;99.90
18884;DHT22;9574;47.282;9.640;2024-02-23T08:05:22;6.10;99.90
18884;DHT22;9574;47.282;9.640;2024-02-23T08:07:49;5.90;99.90
18884;DHT22;9574;47.282;9.640;2024-02-23T08:10:18;6.10;99.90
18884;DHT22;9574;47.282;9.640;2024-02-23T08:12:44;6.10;99.90
18884;DHT22;9574;47.282;9.640;2024-02-23T08:15:12;6.20;99.90
18884;DHT22;9574;47.282;9.640;2024-02-23T08:17:39;6.40;99.90
18884;DHT22;9574;47.282;9.640;2024-02-23T08:20:07;6.40;99.90
18884;DHT22;9574;47.282;9.640;2024-02-23T08:22:34;6.40;99.90
18884;DHT22;9574;47.282;9.640;2024-02-23T08:25:01;6.30;99.90
18884;DHT22;9574;47.282;9.640;2024-02-23T08:27:30;6.30;99.90
18884;DHT22;9574;47.282;9.640;2024-02-23T08:29:56;6.20;99.90
18884;DHT22;9574;47.282;9.640;2024-02-23T08:32:23;6.10;99.90
18884;DHT22;9574;47.282;9.640;2024-02-23T08:34:50;6.00;99.90
18884;DHT22;9574;47.282;9.640;2024-02-23T08:37:18;5.90;99.90
18884;DHT22;9574;47.282;9.640;2024-02-23T08:39:45;5.70;99.90
18884;DHT22;9574;47.282;9.640;2024-02-23T08:42:12;5.60;99.90
18884;DHT22;9574;47.282;9.640;2024-02-23T08:44:40;5.70;99.90
18884;DHT22;9574;47.282;9.640;2024-02-23T08:47:07;5.80;99.90
18884;DHT22;9574;47.282;9.640;2024-02-23T08:49:35;6.00;99.90
18884;DHT22;9574;47.282;9.640;2024-02-23T08:52:01;6.00;99.90
18884;DHT22;9574;47.282;9.640;2024-02-23T08:54:29;6.20;99.90
18884;DHT22;9574;47.282;9.640;2024-02-23T08:56:56;6.20;99.90
18884;DHT22;9574;47.282;9.640;2024-02-23T08:59:23;6.30;99.90
18884;DHT22;9574;47.282;9.640;2024-02-23T09:01:51;6.20;99.90
18884;DHT22;9574;47.282;9.640;2024-02-23T09:04:18;6.10;99.90
18884;DHT22;9574;47.282;9.640;2024-02-23T09:06:45;6.10;99.90
18884;DHT22;9574;47.282;9.640;2024-02-23T09:09:12;6.00;99.90
18884;DHT22;9574;47.282;9.640;2024-02-23T09:11:39;5.90;99.90
18884;DHT22;9574;47.282;9.640;2024-02-23T09:14:06;5.80;99.90
18884;DHT22;9574;47.282;9.640;2024-02-23T09:16:33;5.90;99.90
18884;DHT22;9574;47.282;9.640;2024-02-23T09:19:01;6.10;99.90
18884;DHT22;9574;47.282;9.640;2024-02-23T09:21:28;6.20;99.90
18884;DHT22;9574;47.282;9.640;2024-02-23T09:23:55;6.30;99.90
18884;DHT22;9574;47.282;9.640;2024-02-23T09:26:22;6.40;99.90
18884;DHT22;9574;47.282;9.640;2024-02-23T09:28:49;6.50;99.90
18884;DHT22;9574;47.282;9.640;2024-02-23T09:31:16;6.70;99.90
18884;DHT22;9574;47.282;9.640;2024-02-23T09:33:44;6.60;99.90
18884;DHT22;9574;47.282;9.640;2024-02-23T09:36:13;6.60;99.90
18884;DHT22;9574;47.282;9.640;2024-02-23T09:38:41;6.60;99.90
18884;DHT22;9574;47.282;9.640;2024-02-23T09:41:18;6.60;99.90
18884;DHT22;9574;47.282;9.640;2024-02-23T09:43:48;6.60;99.90
18884;DHT22;9574;47.282;9.640;2024-02-23T09:46:16;6.40;99.90
18884;DHT22;9574;47.282;9.640;2024-02-23T09:48:45;6.40;99.90
18884;DHT22;9574;47.282;9.640;2024-02-23T09:51:15;6.40;99.90
18884;DHT22;9574;47.282;9.640;2024-02-23T09:53:43;6.50;99.90
18884;DHT22;9574;47.282;9.640;2024-02-23T09:56:10;6.50;99.90
18884;DHT22;9574;47.282;9.640;2024-02-23T09:58:37;6.50;99.90
18884;DHT22;9574;47.282;9.640;2024-02-23T10:01:05;6.30;99.90
18884;DHT22;9574;47.282;9.640;2024-02-23T10:03:33;6.00;99.90
18884;DHT22;9574;47.282;9.640;2024-02-23T10:06:00;6.00;99.90
18884;DHT22;9574;47.282;9.640;2024-02-23T10:08:28;6.00;99.90
18884;DHT22;9574;47.282;9.640;2024-02-23T10:10:55;5.80;99.90
18884;DHT22;9574;47.282;9.640;2024-02-23T10:13:23;5.80;99.90
18884;DHT22;9574;47.282;9.640;2024-02-23T10:15:50;5.90;99.90
18884;DHT22;9574;47.282;9.640;2024-02-23T10:18:18;6.10;99.90
18884;DHT22;9574;47.282;9.640;2024-02-23T10:20:45;6.40;99.90
18884;DHT22;9574;47.282;9.640;2024-02-23T10:23:12;6.60;99.90
18884;DHT22;9574;47.282;9.640;2024-02-23T10:25:40;6.90;99.90
18884;DHT22;9574;47.282;9.640;2024-02-23T10:28:07;6.90;99.90
18884;DHT22;9574;47.282;9.640;2024-02-23T10:30:36;6.80;99.90
18884;DHT22;9574;47.282;9.640;2024-02-23T10:33:05;6.90;99.90
18884;DHT22;9574;47.282;9.640;2024-02-23T10:35:32;6.90;99.90
18884;DHT22;9574;47.282;9.640;2024-02-23T10:38:02;6.80;99.90
18884;DHT22;9574;47.282;9.640;2024-02-23T10:40:31;6.90;99.90
18884;DHT22;9574;47.282;9.640;2024-02-23T10:43:03;6.90;99.90
18884;DHT22;9574;47.282;9.640;2024-02-23T10:45:31;6.90;99.90
18884;DHT22;9574;47.282;9.640;2024-02-23T10:47:59;6.80;99.90
18884;DHT22;9574;47.282;9.640;2024-02-23T10:50:26;6.80;99.90
18884;DHT22;9574;47.282;9.640;2024-02-23T10:52:54;6.80;99.90
18884;DHT22;9574;47.282;9.640;2024-02-23T10:55:23;6.80;99.90
18884;DHT22;9574;47.282;9.640;2024-02-23T10:57:53;6.80;99.90
18884;DHT22;9574;47.282;9.640;2024-02-23T11:00:23;6.80;99.90
18884;DHT22;9574;47.282;9.640;2024-02-23T11:02:53;6.90;99.90
18884;DHT22;9574;47.282;9.640;2024-02-23T11:05:21;6.90;99.90
18884;DHT22;9574;47.282;9.640;2024-02-23T11:07:49;6.80;99.90
18884;DHT22;9574;47.282;9.640;2024-02-23T11:10:17;6.70;99.90
18884;DHT22;9574;47.282;9.640;2024-02-23T11:12:57;6.70;99.90
18884;DHT22;9574;47.282;9.640;2024-02-23T11:15:30;6.80;99.90
18884;DHT22;9574;47.282;9.640;2024-02-23T11:18:00;6.90;99.90
18884;DHT22;9574;47.282;9.640;2024-02-23T11:20:34;7.00;99.90
18884;DHT22;9574;47.282;9.640;2024-02-23T11:23:01;7.00;99.90
18884;DHT22;9574;47.282;9.640;2024-02-23T11:25:29;6.80;99.90
18884;DHT22;9574;47.282;9.640;2024-02-23T11:27:59;6.60;99.90
18884;DHT22;9574;47.282;9.640;2024-02-23T11:30:26;6.60;99.90
18884;DHT22;9574;47.282;9.640;2024-02-23T11:32:59;6.50;99.90
18884;DHT22;9574;47.282;9.640;2024-02-23T11:35:27;6.50;99.90
18884;DHT22;9574;47.282;9.640;2024-02-23T11:37:55;6.50;99.90
18884;DHT22;9574;47.282;9.640;2024-02-23T11:40:25;6.50;99.90
18884;DHT22;9574;47.282;9.640;2024-02-23T11:42:54;6.50;99.90
18884;DHT22;9574;47.282;9.640;2024-02-23T11:45:21;6.40;99.90
18884;DHT22;9574;47.282;9.640;2024-02-23T11:47:48;6.30;99.90
18884;DHT22;9574;47.282;9.640;2024-02-23T11:50:17;6.40;99.90
18884;DHT22;9574;47.282;9.640;2024-02-23T11:52:46;6.30;99.90
18884;DHT22;9574;47.282;9.640;2024-02-23T11:55:18;6.40;99.90
18884;DHT22;9574;47.282;9.640;2024-02-23T11:57:47;6.60;99.90
18884;DHT22;9574;47.282;9.640;2024-02-23T12:00:15;6.70;99.90
18884;DHT22;9574;47.282;9.640;2024-02-23T12:02:43;6.80;99.90
18884;DHT22;9574;47.282;9.640;2024-02-23T12:05:11;6.70;99.90
18884;DHT22;9574;47.282;9.640;2024-02-23T12:07:40;6.60;99.90
18884;DHT22;9574;47.282;9.640;2024-02-23T12:10:08;6.60;99.90
18884;DHT22;9574;47.282;9.640;2024-02-23T12:12:36;6.70;99.90
18884;DHT22;9574;47.282;9.640;2024-02-23T12:15:06;6.80;99.90
18884;DHT22;9574;47.282;9.640;2024-02-23T12:17:35;6.70;99.90
18884;DHT22;9574;47.282;9.640;2024-02-23T12:20:03;6.80;99.90
18884;DHT22;9574;47.282;9.640;2024-02-23T12:22:30;6.70;99.90
18884;DHT22;9574;47.282;9.640;2024-02-23T12:24:59;6.70;99.90
18884;DHT22;9574;47.282;9.640;2024-02-23T12:27:29;6.90;99.90
18884;DHT22;9574;47.282;9.640;2024-02-23T12:29:56;6.90;99.90
18884;DHT22;9574;47.282;9.640;2024-02-23T12:32:23;6.90;99.90
18884;DHT22;9574;47.282;9.640;2024-02-23T12:34:50;7.10;99.90
18884;DHT22;9574;47.282;9.640;2024-02-23T12:37:17;7.20;99.90
18884;DHT22;9574;47.282;9.640;2024-02-23T12:39:44;7.30;99.90
18884;DHT22;9574;47.282;9.640;2024-02-23T12:42:13;7.30;99.90
18884;DHT22;9574;47.282;9.640;2024-02-23T12:44:40;7.30;99.90
18884;DHT22;9574;47.282;9.640;2024-02-23T12:47:07;7.30;99.90
18884;DHT22;9574;47.282;9.640;2024-02-23T12:49:34;7.50;99.90
18884;DHT22;9574;47.282;9.640;2024-02-23T12:52:01;7.60;99.90
18884;DHT22;9574;47.282;9.640;2024-02-23T12:54:28;7.70;99.90
18884;DHT22;9574;47.282;9.640;2024-02-23T12:56:55;7.70;99.90
18884;DHT22;9574;47.282;9.640;2024-02-23T12:59:24;7.70;99.90
18884;DHT22;9574;47.282;9.640;2024-02-23T13:01:51;7.90;99.90
18884;DHT22;9574;47.282;9.640;2024-02-23T13:04:17;7.90;99.90
18884;DHT22;9574;47.282;9.640;2024-02-23T13:06:44;7.90;99.90
18884;DHT22;9574;47.282;9.640;2024-02-23T13:09:12;8.00;99.90
18884;DHT22;9574;47.282;9.640;2024-02-23T13:11:40;8.00;99.90
18884;DHT22;9574;47.282;9.640;2024-02-23T13:14:08;7.90;99.90
18884;DHT22;9574;47.282;9.640;2024-02-23T13:16:37;7.90;99.90
18884;DHT22;9574;47.282;9.640;2024-02-23T13:19:04;7.90;99.90
18884;DHT22;9574;47.282;9.640;2024-02-23T13:21:31;7.80;99.90
18884;DHT22;9574;47.282;9.640;2024-02-23T13:23:59;7.80;99.90
18884;DHT22;9574;47.282;9.640;2024-02-23T13:26:26;7.60;99.90
18884;DHT22;9574;47.282;9.640;2024-02-23T13:28:53;7.50;99.90
18884;DHT22;9574;47.282;9.640;2024-02-23T13:31:20;7.50;99.90
18884;DHT22;9574;47.282;9.640;2024-02-23T13:33:48;7.50;99.90
18884;DHT22;9574;47.282;9.640;2024-02-23T13:36:15;7.50;99.90
18884;DHT22;9574;47.282;9.640;2024-02-23T13:38:42;7.50;99.90
18884;DHT22;9574;47.282;9.640;2024-02-23T13:41:09;7.40;99.90
18884;DHT22;9574;47.282;9.640;2024-02-23T13:43:37;7.40;99.90
18884;DHT22;9574;47.282;9.640;2024-02-23T13:46:04;7.50;99.90
18884;DHT22;9574;47.282;9.640;2024-02-23T13:48:32;7.50;99.90
18884;DHT22;9574;47.282;9.640;2024-02-23T13:51:00;7.30;99.90
18884;DHT22;9574;47.282;9.640;2024-02-23T13:53:29;7.20;99.90
18884;DHT22;9574;47.282;9.640;2024-02-23T13:55:57;7.20;99.90
18884;DHT22;9574;47.282;9.640;2024-02-23T13:58:23;7.10;99.90
18884;DHT22;9574;47.282;9.640;2024-02-23T14:00:51;7.00;99.90
18884;DHT22;9574;47.282;9.640;2024-02-23T14:03:18;7.10;99.90
18884;DHT22;9574;47.282;9.640;2024-02-23T14:05:45;7.10;99.90
18884;DHT22;9574;47.282;9.640;2024-02-23T14:08:14;7.10;99.90
18884;DHT22;9574;47.282;9.640;2024-02-23T14:10:41;7.00;99.90
18884;DHT22;9574;47.282;9.640;2024-02-23T14:13:08;7.00;99.90
18884;DHT22;9574;47.282;9.640;2024-02-23T14:15:36;7.00;99.90
18884;DHT22;9574;47.282;9.640;2024-02-23T14:18:03;7.10;99.90
18884;DHT22;9574;47.282;9.640;2024-02-23T14:20:30;7.10;99.90
18884;DHT22;9574;47.282;9.640;2024-02-23T14:22:57;6.90;99.90
18884;DHT22;9574;47.282;9.640;2024-02-23T14:25:25;6.90;99.90
18884;DHT22;9574;47.282;9.640;2024-02-23T14:27:52;7.00;99.90
18884;DHT22;9574;47.282;9.640;2024-02-23T14:30:21;7.10;99.90
18884;DHT22;9574;47.282;9.640;2024-02-23T14:32:48;7.20;99.90
18884;DHT22;9574;47.282;9.640;2024-02-23T14:35:15;7.20;99.90
18884;DHT22;9574;47.282;9.640;2024-02-23T14:37:42;6.90;99.90
18884;DHT22;9574;47.282;9.640;2024-02-23T14:40:10;6.80;99.90
18884;DHT22;9574;47.282;9.640;2024-02-23T14:42:40;6.80;99.90
18884;DHT22;9574;47.282;9.640;2024-02-23T14:45:08;6.70;99.90
18884;DHT22;9574;47.282;9.640;2024-02-23T14:47:38;6.60;99.90
18884;DHT22;9574;47.282;9.640;2024-02-23T14:50:06;6.40;99.90
18884;DHT22;9574;47.282;9.640;2024-02-23T14:52:34;6.50;99.90
18884;DHT22;9574;47.282;9.640;2024-02-23T14:55:01;6.50;99.90
18884;DHT22;9574;47.282;9.640;2024-02-23T14:57:29;6.60;99.90
18884;DHT22;9574;47.282;9.640;2024-02-23T14:59:57;6.60;99.90
18884;DHT22;9574;47.282;9.640;2024-02-23T15:02:24;6.60;99.90
18884;DHT22;9574;47.282;9.640;2024-02-23T15:04:51;6.50;99.90
18884;DHT22;9574;47.282;9.640;2024-02-23T15:07:18;6.60;99.90
18884;DHT22;9574;47.282;9.640;2024-02-23T15:09:45;6.70;99.90
18884;DHT22;9574;47.282;9.640;2024-02-23T15:12:12;6.70;99.90
18884;DHT22;9574;47.282;9.640;2024-02-23T15:14:39;6.70;99.90
18884;DHT22;9574;47.282;9.640;2024-02-23T15:17:08;6.50;99.90
18884;DHT22;9574;47.282;9.640;2024-02-23T15:19:35;6.50;99.90
18884;DHT22;9574;47.282;9.640;2024-02-23T15:22:02;6.60;99.90
18884;DHT22;9574;47.282;9.640;2024-02-23T15:24:29;6.70;99.90
18884;DHT22;9574;47.282;9.640;2024-02-23T15:26:55;6.70;99.90
18884;DHT22;9574;47.282;9.640;2024-02-23T15:29:22;6.70;99.90
18884;DHT22;9574;47.282;9.640;2024-02-23T15:31:50;6.60;99.90
18884;DHT22;9574;47.282;9.640;2024-02-23T15:34:18;6.60;99.90
18884;DHT22;9574;47.282;9.640;2024-02-23T15:36:46;6.60;99.90
18884;DHT22;9574;47.282;9.640;2024-02-23T15:39:13;6.70;99.90
18884;DHT22;9574;47.282;9.640;2024-02-23T15:41:40;6.60;99.90
18884;DHT22;9574;47.282;9.640;2024-02-23T15:44:07;6.40;99.90
18884;DHT22;9574;47.282;9.640;2024-02-23T15:46:34;6.30;99.90
18884;DHT22;9574;47.282;9.640;2024-02-23T15:49:01;6.50;99.90
18884;DHT22;9574;47.282;9.640;2024-02-23T15:51:29;6.60;99.90
18884;DHT22;9574;47.282;9.640;2024-02-23T15:53:59;6.50;99.90
18884;DHT22;9574;47.282;9.640;2024-02-23T15:56:26;6.50;99.90
18884;DHT22;9574;47.282;9.640;2024-02-23T15:58:53;6.50;99.90
18884;DHT22;9574;47.282;9.640;2024-02-23T16:01:20;6.40;99.90
18884;DHT22;9574;47.282;9.640;2024-02-23T16:03:47;6.40;99.90